sensor_id;sensor_type;location;lat;lon;timestamp;pressure;altitude;pressure_sealevel;temperature;humidity
50125;BME280;36023;48.670;6.184;2023-05-29T00:00:21;99011.97;;;23.73;34.40
50125;BME280;36023;48.670;6.184;2023-05-29T00:02:49;99009.44;;;23.71;34.44
50125;BME280;36023;48.670;6.184;2023-05-29T00:05:16;99006.81;;;23.71;34.06
50125;BME280;36023;48.670;6.184;2023-05-29T00:07:43;99012.94;;;23.72;34.03
50125;BME280;36023;48.670;6.184;2023-05-29T00:10:10;99003.19;;;23.72;34.13
50125;BME280;36023;48.670;6.184;2023-05-29T00:12:38;99005.97;;;23.71;33.94
50125;BME280;36023;48.670;6.184;2023-05-29T00:15:05;98998.88;;;23.71;34.05
50125;BME280;36023;48.670;6.184;2023-05-29T00:17:32;98998.88;;;23.71;34.25
50125;BME280;36023;48.670;6.184;2023-05-29T00:19:58;99000.69;;;23.71;33.44
50125;BME280;36023;48.670;6.184;2023-05-29T00:22:26;98998.16;;;23.69;33.91
50125;BME280;36023;48.670;6.184;2023-05-29T00:24:52;99001.63;;;23.70;33.74
50125;BME280;36023;48.670;6.184;2023-05-29T00:27:18;99004.28;;;23.70;33.35
50125;BME280;36023;48.670;6.184;2023-05-29T00:29:45;99001.63;;;23.70;32.91
50125;BME280;36023;48.670;6.184;2023-05-29T00:32:12;98998.16;;;23.69;33.11
50125;BME280;36023;48.670;6.184;2023-05-29T00:34:37;98995.63;;;23.68;32.98
50125;BME280;36023;48.670;6.184;2023-05-29T00:37:03;99000.81;;;23.69;33.10
50125;BME280;36023;48.670;6.184;2023-05-29T00:39:29;99000.81;;;23.69;33.02
50125;BME280;36023;48.670;6.184;2023-05-29T00:41:56;99001.75;;;23.68;32.93
50125;BME280;36023;48.670;6.184;2023-05-29T00:44:22;99005.13;;;23.70;33.41
50125;BME280;36023;48.670;6.184;2023-05-29T00:46:49;99005.13;;;23.70;32.72
50125;BME280;36023;48.670;6.184;2023-05-29T00:49:16;98999.00;;;23.70;33.37
50125;BME280;36023;48.670;6.184;2023-05-29T00:51:43;99003.44;;;23.69;33.07
50125;BME280;36023;48.670;6.184;2023-05-29T00:54:12;99001.53;;;23.71;33.88
50125;BME280;36023;48.670;6.184;2023-05-29T00:56:40;98993.72;;;23.70;33.18
50125;BME280;36023;48.670;6.184;2023-05-29T00:59:11;98998.16;;;23.69;33.29
50125;BME280;36023;48.670;6.184;2023-05-29T01:01:37;98993.81;;;23.68;32.95
50125;BME280;36023;48.670;6.184;2023-05-29T01:04:05;98998.28;;;23.68;32.67
50125;BME280;36023;48.670;6.184;2023-05-29T01:06:33;98994.78;;;23.67;32.82
50125;BME280;36023;48.670;6.184;2023-05-29T01:08:59;98989.59;;;23.66;32.58
50125;BME280;36023;48.670;6.184;2023-05-29T01:14:08;98994.88;;;23.66;32.80
50125;BME280;36023;48.670;6.184;2023-05-29T01:16:41;98994.03;;;23.65;32.75
50125;BME280;36023;48.670;6.184;2023-05-29T01:19:17;98994.88;;;23.66;32.56
50125;BME280;36023;48.670;6.184;2023-05-29T01:22:25;98991.41;;;23.65;32.59
50125;BME280;36023;48.670;6.184;2023-05-29T01:25:05;98991.41;;;23.65;32.20
50125;BME280;36023;48.670;6.184;2023-05-29T01:27:34;98986.22;;;23.63;32.44
50125;BME280;36023;48.670;6.184;2023-05-29T01:30:02;98995.84;;;23.65;32.24
50125;BME280;36023;48.670;6.184;2023-05-29T01:32:31;98997.66;;;23.64;32.12
50125;BME280;36023;48.670;6.184;2023-05-29T01:34:57;98989.72;;;23.64;32.14
50125;BME280;36023;48.670;6.184;2023-05-29T01:37:23;98995.00;;;23.64;32.40
50125;BME280;36023;48.670;6.184;2023-05-29T01:39:48;98999.31;;;23.65;32.17
50125;BME280;36023;48.670;6.184;2023-05-29T01:42:14;98996.69;;;23.65;32.00
50125;BME280;36023;48.670;6.184;2023-05-29T01:44:40;98990.69;;;23.63;32.20
50125;BME280;36023;48.670;6.184;2023-05-29T01:47:06;99002.94;;;23.64;32.00
50125;BME280;36023;48.670;6.184;2023-05-29T01:49:34;98994.16;;;23.63;32.00
50125;BME280;36023;48.670;6.184;2023-05-29T01:52:02;99011.72;;;23.65;31.78
50125;BME280;36023;48.670;6.184;2023-05-29T01:54:27;99004.75;;;23.63;32.09
50125;BME280;36023;48.670;6.184;2023-05-29T01:56:53;99010.03;;;23.63;31.83
50125;BME280;36023;48.670;6.184;2023-05-29T01:59:19;99009.19;;;23.63;31.88
50125;BME280;36023;48.670;6.184;2023-05-29T02:01:47;99010.03;;;23.63;31.89
50125;BME280;36023;48.670;6.184;2023-05-29T02:04:13;99011.81;;;23.63;31.72
50125;BME280;36023;48.670;6.184;2023-05-29T02:06:38;99008.34;;;23.62;31.63
50125;BME280;36023;48.670;6.184;2023-05-29T02:09:04;99011.00;;;23.62;31.60
50125;BME280;36023;48.670;6.184;2023-05-29T02:11:31;99007.50;;;23.62;31.62
50125;BME280;36023;48.670;6.184;2023-05-29T02:13:58;99012.78;;;23.62;31.56
50125;BME280;36023;48.670;6.184;2023-05-29T02:16:23;99003.06;;;23.62;31.77
50125;BME280;36023;48.670;6.184;2023-05-29T02:18:49;99012.66;;;23.63;31.57
50125;BME280;36023;48.670;6.184;2023-05-29T02:21:16;99002.22;;;23.62;31.71
50125;BME280;36023;48.670;6.184;2023-05-29T02:23:42;99005.81;;;23.61;31.77
50125;BME280;36023;48.670;6.184;2023-05-29T02:26:09;99015.44;;;23.62;31.69
50125;BME280;36023;48.670;6.184;2023-05-29T02:28:35;99011.81;;;23.63;31.84
50125;BME280;36023;48.670;6.184;2023-05-29T02:31:02;99016.28;;;23.62;31.67
50125;BME280;36023;48.670;6.184;2023-05-29T02:33:28;99013.63;;;23.62;31.44
50125;BME280;36023;48.670;6.184;2023-05-29T02:35:55;99004.97;;;23.60;31.33
50125;BME280;36023;48.670;6.184;2023-05-29T02:38:20;99007.50;;;23.62;31.52
50125;BME280;36023;48.670;6.184;2023-05-29T02:40:46;98998.84;;;23.60;31.61
50125;BME280;36023;48.670;6.184;2023-05-29T02:43:13;98997.03;;;23.60;31.42
50125;BME280;36023;48.670;6.184;2023-05-29T02:45:38;99003.25;;;23.59;31.64
50125;BME280;36023;48.670;6.184;2023-05-29T02:48:04;99002.44;;;23.59;31.61
50125;BME280;36023;48.670;6.184;2023-05-29T02:50:30;99009.44;;;23.60;31.78
50125;BME280;36023;48.670;6.184;2023-05-29T02:52:55;99002.44;;;23.59;31.46
50125;BME280;36023;48.670;6.184;2023-05-29T02:55:21;99009.44;;;23.60;31.32
50125;BME280;36023;48.670;6.184;2023-05-29T02:57:48;99007.72;;;23.59;31.32
50125;BME280;36023;48.670;6.184;2023-05-29T03:00:18;99021.88;;;23.58;31.34
50125;BME280;36023;48.670;6.184;2023-05-29T03:02:44;99008.66;;;23.58;31.58
50125;BME280;36023;48.670;6.184;2023-05-29T03:05:10;99023.56;;;23.59;31.34
50125;BME280;36023;48.670;6.184;2023-05-29T03:07:36;99019.25;;;23.58;31.33
50125;BME280;36023;48.670;6.184;2023-05-29T03:10:03;99021.13;;;23.56;31.43
50125;BME280;36023;48.670;6.184;2023-05-29T03:12:29;99014.03;;;23.56;31.50
50125;BME280;36023;48.670;6.184;2023-05-29T03:14:56;99019.34;;;23.56;31.16
50125;BME280;36023;48.670;6.184;2023-05-29T03:17:21;99018.50;;;23.56;31.08
50125;BME280;36023;48.670;6.184;2023-05-29T03:19:48;99015.97;;;23.54;31.26
50125;BME280;36023;48.670;6.184;2023-05-29T03:22:14;99014.28;;;23.53;31.41
50125;BME280;36023;48.670;6.184;2023-05-29T03:24:41;99014.28;;;23.53;31.23
50125;BME280;36023;48.670;6.184;2023-05-29T03:27:07;99003.72;;;23.53;31.19
50125;BME280;36023;48.670;6.184;2023-05-29T03:29:34;99014.28;;;23.53;31.29
50125;BME280;36023;48.670;6.184;2023-05-29T03:32:01;99005.50;;;23.53;31.36
50125;BME280;36023;48.670;6.184;2023-05-29T03:34:30;99016.09;;;23.53;31.28
50125;BME280;36023;48.670;6.184;2023-05-29T03:36:57;99014.41;;;23.52;31.29
50125;BME280;36023;48.670;6.184;2023-05-29T03:39:24;99017.06;;;23.52;30.85
50125;BME280;36023;48.670;6.184;2023-05-29T03:41:49;99012.72;;;23.51;30.85
50125;BME280;36023;48.670;6.184;2023-05-29T03:44:16;99017.06;;;23.52;30.92
50125;BME280;36023;48.670;6.184;2023-05-29T03:46:42;99017.06;;;23.52;30.85
50125;BME280;36023;48.670;6.184;2023-05-29T03:49:08;99021.50;;;23.51;30.82
50125;BME280;36023;48.670;6.184;2023-05-29T03:51:35;99020.66;;;23.51;31.12
50125;BME280;36023;48.670;6.184;2023-05-29T03:54:01;99023.38;;;23.49;31.05
50125;BME280;36023;48.670;6.184;2023-05-29T03:56:28;99020.66;;;23.51;31.05
50125;BME280;36023;48.670;6.184;2023-05-29T03:58:55;99026.03;;;23.49;30.92
50125;BME280;36023;48.670;6.184;2023-05-29T04:01:21;99022.53;;;23.49;30.75
50125;BME280;36023;48.670;6.184;2023-05-29T04:03:47;99026.16;;;23.48;30.93
50125;BME280;36023;48.670;6.184;2023-05-29T04:06:14;99035.75;;;23.49;31.19
50125;BME280;36023;48.670;6.184;2023-05-29T04:08:41;99029.75;;;23.47;31.15
50125;BME280;36023;48.670;6.184;2023-05-29T04:11:07;99024.47;;;23.47;30.97
50125;BME280;36023;48.670;6.184;2023-05-29T04:13:33;99028.06;;;23.46;30.83
50125;BME280;36023;48.670;6.184;2023-05-29T04:16:01;99033.34;;;23.46;31.13
50125;BME280;36023;48.670;6.184;2023-05-29T04:18:27;99030.72;;;23.46;30.88
50125;BME280;36023;48.670;6.184;2023-05-29T04:20:54;99036.97;;;23.45;31.10
50125;BME280;36023;48.670;6.184;2023-05-29T04:23:20;99038.75;;;23.44;31.10
50125;BME280;36023;48.670;6.184;2023-05-29T04:25:46;99040.56;;;23.44;31.00
50125;BME280;36023;48.670;6.184;2023-05-29T04:28:17;99043.28;;;23.42;30.79
50125;BME280;36023;48.670;6.184;2023-05-29T04:30:43;99049.47;;;23.43;31.11
50125;BME280;36023;48.670;6.184;2023-05-29T04:33:09;99055.66;;;23.42;31.09
50125;BME280;36023;48.670;6.184;2023-05-29T04:35:41;99054.75;;;23.43;31.01
50125;BME280;36023;48.670;6.184;2023-05-29T04:38:10;99058.31;;;23.42;31.02
50125;BME280;36023;48.670;6.184;2023-05-29T04:40:36;99058.31;;;23.42;31.04
50125;BME280;36023;48.670;6.184;2023-05-29T04:43:02;99063.59;;;23.42;31.02
50125;BME280;36023;48.670;6.184;2023-05-29T04:45:42;99063.72;;;23.40;30.93
50125;BME280;36023;48.670;6.184;2023-05-29T04:48:08;99063.72;;;23.40;31.18
50125;BME280;36023;48.670;6.184;2023-05-29T04:50:34;99073.34;;;23.41;31.02
50125;BME280;36023;48.670;6.184;2023-05-29T04:53:05;99070.69;;;23.41;31.01
50125;BME280;36023;48.670;6.184;2023-05-29T04:55:30;99072.50;;;23.41;31.08
50125;BME280;36023;48.670;6.184;2023-05-29T04:57:56;99076.09;;;23.40;31.16
50125;BME280;36023;48.670;6.184;2023-05-29T05:00:23;99074.41;;;23.39;30.80
50125;BME280;36023;48.670;6.184;2023-05-29T05:02:50;99072.59;;;23.39;31.00
50125;BME280;36023;48.670;6.184;2023-05-29T05:05:16;99070.91;;;23.38;31.17
50125;BME280;36023;48.670;6.184;2023-05-29T05:07:43;99079.69;;;23.39;31.17
50125;BME280;36023;48.670;6.184;2023-05-29T05:10:10;99078.00;;;23.38;31.16
50125;BME280;36023;48.670;6.184;2023-05-29T05:12:36;99080.53;;;23.39;31.18
50125;BME280;36023;48.670;6.184;2023-05-29T05:15:03;99078.00;;;23.38;31.25
50125;BME280;36023;48.670;6.184;2023-05-29T05:17:30;99083.28;;;23.38;31.37
50125;BME280;36023;48.670;6.184;2023-05-29T05:19:55;99083.28;;;23.38;31.47
50125;BME280;36023;48.670;6.184;2023-05-29T05:22:21;99091.22;;;23.38;31.11
50125;BME280;36023;48.670;6.184;2023-05-29T05:24:48;99091.22;;;23.38;31.18
50125;BME280;36023;48.670;6.184;2023-05-29T05:27:14;99091.34;;;23.36;31.47
50125;BME280;36023;48.670;6.184;2023-05-29T05:29:40;99095.78;;;23.35;31.29
50125;BME280;36023;48.670;6.184;2023-05-29T05:32:07;99093.97;;;23.36;31.53
50125;BME280;36023;48.670;6.184;2023-05-29T05:34:33;99100.13;;;23.37;31.41
50125;BME280;36023;48.670;6.184;2023-05-29T05:36:59;99101.16;;;23.34;31.45
50125;BME280;36023;48.670;6.184;2023-05-29T05:39:25;99102.00;;;23.34;31.49
50125;BME280;36023;48.670;6.184;2023-05-29T05:41:51;99109.94;;;23.34;31.27
50125;BME280;36023;48.670;6.184;2023-05-29T05:44:36;99109.09;;;23.34;31.63
50125;BME280;36023;48.670;6.184;2023-05-29T05:47:07;99115.22;;;23.34;31.68
50125;BME280;36023;48.670;6.184;2023-05-29T05:49:33;99105.59;;;23.33;31.54
50125;BME280;36023;48.670;6.184;2023-05-29T05:51:59;99115.31;;;23.33;31.48
50125;BME280;36023;48.670;6.184;2023-05-29T05:54:24;99121.47;;;23.33;31.33
50125;BME280;36023;48.670;6.184;2023-05-29T05:56:52;99117.97;;;23.33;31.80
50125;BME280;36023;48.670;6.184;2023-05-29T05:59:18;99128.66;;;23.31;31.64
50125;BME280;36023;48.670;6.184;2023-05-29T06:01:44;99125.06;;;23.32;31.75
50125;BME280;36023;48.670;6.184;2023-05-29T06:04:10;99129.50;;;23.32;31.56
50125;BME280;36023;48.670;6.184;2023-05-29T06:06:36;99133.94;;;23.31;31.64
50125;BME280;36023;48.670;6.184;2023-05-29T06:09:02;99132.25;;;23.30;31.65
50125;BME280;36023;48.670;6.184;2023-05-29T06:11:30;99139.22;;;23.31;31.77
50125;BME280;36023;48.670;6.184;2023-05-29T06:13:58;99136.59;;;23.31;31.88
50125;BME280;36023;48.670;6.184;2023-05-29T06:16:29;99142.72;;;23.32;31.71
50125;BME280;36023;48.670;6.184;2023-05-29T06:18:56;99140.91;;;23.32;31.84
50125;BME280;36023;48.670;6.184;2023-05-29T06:21:24;99142.81;;;23.30;32.04
50125;BME280;36023;48.670;6.184;2023-05-29T06:23:54;99141.88;;;23.31;31.68
50125;BME280;36023;48.670;6.184;2023-05-29T06:26:21;99148.97;;;23.31;31.90
50125;BME280;36023;48.670;6.184;2023-05-29T06:28:49;99156.03;;;23.30;31.76
50125;BME280;36023;48.670;6.184;2023-05-29T06:31:14;99145.47;;;23.30;31.87
50125;BME280;36023;48.670;6.184;2023-05-29T06:33:41;99143.66;;;23.31;32.16
50125;BME280;36023;48.670;6.184;2023-05-29T06:36:08;99144.50;;;23.31;32.14
50125;BME280;36023;48.670;6.184;2023-05-29T06:38:34;99143.66;;;23.31;32.00
50125;BME280;36023;48.670;6.184;2023-05-29T06:41:00;99145.47;;;23.30;32.02
50125;BME280;36023;48.670;6.184;2023-05-29T06:43:27;99146.31;;;23.31;32.06
50125;BME280;36023;48.670;6.184;2023-05-29T06:45:56;99142.00;;;23.30;31.94
50125;BME280;36023;48.670;6.184;2023-05-29T06:48:21;99155.19;;;23.30;32.23
50125;BME280;36023;48.670;6.184;2023-05-29T06:50:48;99150.75;;;23.30;32.15
50125;BME280;36023;48.670;6.184;2023-05-29T06:53:34;99153.41;;;23.30;32.12
50125;BME280;36023;48.670;6.184;2023-05-29T06:56:01;99150.75;;;23.30;32.58
50125;BME280;36023;48.670;6.184;2023-05-29T06:58:33;99163.13;;;23.30;32.44
50125;BME280;36023;48.670;6.184;2023-05-29T07:01:01;99160.47;;;23.30;32.32
50125;BME280;36023;48.670;6.184;2023-05-29T07:03:31;99161.31;;;23.30;32.64
50125;BME280;36023;48.670;6.184;2023-05-29T07:05:57;99164.09;;;23.29;32.54
50125;BME280;36023;48.670;6.184;2023-05-29T07:08:25;99170.22;;;23.29;32.44
50125;BME280;36023;48.670;6.184;2023-05-29T07:10:52;99174.66;;;23.29;32.73
50125;BME280;36023;48.670;6.184;2023-05-29T07:13:20;99178.13;;;23.29;32.66
50125;BME280;36023;48.670;6.184;2023-05-29T07:15:48;99177.28;;;23.29;32.67
50125;BME280;36023;48.670;6.184;2023-05-29T07:18:15;99179.94;;;23.29;33.07
50125;BME280;36023;48.670;6.184;2023-05-29T07:20:42;99178.13;;;23.29;32.96
50125;BME280;36023;48.670;6.184;2023-05-29T07:23:12;99180.78;;;23.29;33.10
50125;BME280;36023;48.670;6.184;2023-05-29T07:25:37;99178.97;;;23.30;33.06
50125;BME280;36023;48.670;6.184;2023-05-29T07:28:04;99178.13;;;23.29;33.09
50125;BME280;36023;48.670;6.184;2023-05-29T07:30:31;99180.78;;;23.29;33.22
50125;BME280;36023;48.670;6.184;2023-05-29T07:32:58;99178.13;;;23.29;33.44
50125;BME280;36023;48.670;6.184;2023-05-29T07:35:23;99180.78;;;23.29;33.29
50125;BME280;36023;48.670;6.184;2023-05-29T07:37:49;99180.78;;;23.29;33.27
50125;BME280;36023;48.670;6.184;2023-05-29T07:40:16;99186.06;;;23.29;33.53
50125;BME280;36023;48.670;6.184;2023-05-29T07:43:20;99180.78;;;23.29;33.79
50125;BME280;36023;48.670;6.184;2023-05-29T07:45:51;99182.59;;;23.29;33.67
50125;BME280;36023;48.670;6.184;2023-05-29T07:48:17;99187.88;;;23.29;33.79
50125;BME280;36023;48.670;6.184;2023-05-29T07:50:43;99187.03;;;23.28;33.55
50125;BME280;36023;48.670;6.184;2023-05-29T07:53:08;99187.88;;;23.29;33.72
50125;BME280;36023;48.670;6.184;2023-05-29T07:55:38;99194.84;;;23.30;33.97
50125;BME280;36023;48.670;6.184;2023-05-29T07:58:05;99195.69;;;23.30;34.09
50125;BME280;36023;48.670;6.184;2023-05-29T08:00:33;99196.63;;;23.29;34.27
50125;BME280;36023;48.670;6.184;2023-05-29T08:03:01;99196.63;;;23.29;34.03
50125;BME280;36023;48.670;6.184;2023-05-29T08:05:31;99192.19;;;23.30;34.34
50125;BME280;36023;48.670;6.184;2023-05-29T08:08:05;99185.94;;;23.31;34.13
50125;BME280;36023;48.670;6.184;2023-05-29T08:10:32;99187.75;;;23.30;34.39
50125;BME280;36023;48.670;6.184;2023-05-29T08:12:57;99193.03;;;23.30;34.24
50125;BME280;36023;48.670;6.184;2023-05-29T08:15:23;99192.19;;;23.30;34.28
50125;BME280;36023;48.670;6.184;2023-05-29T08:17:49;99187.75;;;23.30;34.49
50125;BME280;36023;48.670;6.184;2023-05-29T08:20:15;99182.47;;;23.30;34.72
50125;BME280;36023;48.670;6.184;2023-05-29T08:22:42;99182.47;;;23.30;34.74
50125;BME280;36023;48.670;6.184;2023-05-29T08:25:08;99180.66;;;23.31;34.93
50125;BME280;36023;48.670;6.184;2023-05-29T08:27:33;99179.81;;;23.30;34.73
50125;BME280;36023;48.670;6.184;2023-05-29T08:29:59;99169.25;;;23.30;34.71
50125;BME280;36023;48.670;6.184;2023-05-29T08:32:25;99171.91;;;23.30;34.99
50125;BME280;36023;48.670;6.184;2023-05-29T08:34:51;99168.31;;;23.31;34.99
50125;BME280;36023;48.670;6.184;2023-05-29T08:37:17;99165.53;;;23.33;35.25
50125;BME280;36023;48.670;6.184;2023-05-29T08:39:42;99174.44;;;23.32;35.41
50125;BME280;36023;48.670;6.184;2023-05-29T08:42:13;99169.88;;;23.34;35.27
50125;BME280;36023;48.670;6.184;2023-05-29T08:44:40;99168.06;;;23.34;35.50
50125;BME280;36023;48.670;6.184;2023-05-29T08:47:07;99172.50;;;23.34;35.34
50125;BME280;36023;48.670;6.184;2023-05-29T08:49:42;99156.66;;;23.34;35.35
50125;BME280;36023;48.670;6.184;2023-05-29T08:52:29;99166.38;;;23.33;35.46
50125;BME280;36023;48.670;6.184;2023-05-29T08:54:59;99166.38;;;23.33;35.67
50125;BME280;36023;48.670;6.184;2023-05-29T08:57:29;99162.91;;;23.33;35.86
50125;BME280;36023;48.670;6.184;2023-05-29T08:59:56;99161.09;;;23.33;35.83
50125;BME280;36023;48.670;6.184;2023-05-29T09:02:22;99169.03;;;23.33;35.80
50125;BME280;36023;48.670;6.184;2023-05-29T09:04:48;99170.81;;;23.33;35.86
50125;BME280;36023;48.670;6.184;2023-05-29T09:07:22;99171.66;;;23.33;36.09
50125;BME280;36023;48.670;6.184;2023-05-29T09:09:48;99172.50;;;23.34;35.86
50125;BME280;36023;48.670;6.184;2023-05-29T09:12:15;99168.06;;;23.34;36.32
50125;BME280;36023;48.670;6.184;2023-05-29T09:14:44;99168.06;;;23.34;36.16
50125;BME280;36023;48.670;6.184;2023-05-29T09:17:12;99161.94;;;23.34;36.55
50125;BME280;36023;48.670;6.184;2023-05-29T09:19:39;99169.03;;;23.33;36.21
50125;BME280;36023;48.670;6.184;2023-05-29T09:22:11;99167.22;;;23.34;36.39
50125;BME280;36023;48.670;6.184;2023-05-29T09:24:48;99171.59;;;23.35;36.49
50125;BME280;36023;48.670;6.184;2023-05-29T09:27:14;99166.31;;;23.35;36.66
50125;BME280;36023;48.670;6.184;2023-05-29T09:29:42;99161.84;;;23.35;36.78
50125;BME280;36023;48.670;6.184;2023-05-29T09:32:08;99161.84;;;23.35;36.88
50125;BME280;36023;48.670;6.184;2023-05-29T09:34:34;99159.22;;;23.35;36.92
50125;BME280;36023;48.670;6.184;2023-05-29T09:37:02;99165.44;;;23.34;36.87
50125;BME280;36023;48.670;6.184;2023-05-29T09:39:43;99162.69;;;23.36;36.89
50125;BME280;36023;48.670;6.184;2023-05-29T09:42:09;99150.31;;;23.37;37.18
50125;BME280;36023;48.670;6.184;2023-05-29T09:44:35;99151.16;;;23.37;37.15
50125;BME280;36023;48.670;6.184;2023-05-29T09:47:01;99155.63;;;23.37;36.98
50125;BME280;36023;48.670;6.184;2023-05-29T09:49:26;99157.28;;;23.38;37.17
50125;BME280;36023;48.670;6.184;2023-05-29T09:51:57;99150.22;;;23.38;37.05
50125;BME280;36023;48.670;6.184;2023-05-29T09:54:28;99147.56;;;23.38;37.46
50125;BME280;36023;48.670;6.184;2023-05-29T09:56:55;99140.59;;;23.37;37.59
50125;BME280;36023;48.670;6.184;2023-05-29T09:59:23;99146.72;;;23.38;37.40
50125;BME280;36023;48.670;6.184;2023-05-29T10:02:04;99148.41;;;23.39;37.59
50125;BME280;36023;48.670;6.184;2023-05-29T10:04:31;99139.63;;;23.38;37.41
50125;BME280;36023;48.670;6.184;2023-05-29T10:07:05;99143.13;;;23.39;37.21
50125;BME280;36023;48.670;6.184;2023-05-29T10:09:38;99142.28;;;23.38;37.34
50125;BME280;36023;48.670;6.184;2023-05-29T10:12:08;99143.13;;;23.39;37.72
50125;BME280;36023;48.670;6.184;2023-05-29T10:14:37;99141.31;;;23.39;37.60
50125;BME280;36023;48.670;6.184;2023-05-29T10:17:07;99136.03;;;23.39;37.46
50125;BME280;36023;48.670;6.184;2023-05-29T10:19:36;99141.31;;;23.39;37.45
50125;BME280;36023;48.670;6.184;2023-05-29T10:22:07;99135.91;;;23.41;37.91
50125;BME280;36023;48.670;6.184;2023-05-29T10:24:36;99133.16;;;23.42;37.96
50125;BME280;36023;48.670;6.184;2023-05-29T10:27:03;99137.59;;;23.42;37.83
50125;BME280;36023;48.670;6.184;2023-05-29T10:29:36;99140.16;;;23.43;38.27
50125;BME280;36023;48.670;6.184;2023-05-29T10:32:36;99137.16;;;23.48;38.43
50125;BME280;36023;48.670;6.184;2023-05-29T10:35:18;99145.63;;;23.53;38.77
50125;BME280;36023;48.670;6.184;2023-05-29T10:40:23;99141.78;;;23.57;39.36
50125;BME280;36023;48.670;6.184;2023-05-29T10:42:50;99144.34;;;23.58;39.79
50125;BME280;36023;48.670;6.184;2023-05-29T10:50:41;99128.47;;;23.58;39.70
50125;BME280;36023;48.670;6.184;2023-05-29T10:53:08;99127.63;;;23.58;39.87
50125;BME280;36023;48.670;6.184;2023-05-29T10:55:37;99123.28;;;23.57;40.12
50125;BME280;36023;48.670;6.184;2023-05-29T10:58:07;99120.63;;;23.57;39.89
50125;BME280;36023;48.670;6.184;2023-05-29T11:00:39;99123.28;;;23.57;39.87
50125;BME280;36023;48.670;6.184;2023-05-29T11:03:10;99131.22;;;23.57;39.79
50125;BME280;36023;48.670;6.184;2023-05-29T11:05:57;99124.25;;;23.56;40.01
50125;BME280;36023;48.670;6.184;2023-05-29T11:08:35;99118.00;;;23.57;40.03
50125;BME280;36023;48.670;6.184;2023-05-29T11:11:02;99125.94;;;23.57;39.96
50125;BME280;36023;48.670;6.184;2023-05-29T11:13:32;99118.84;;;23.57;39.77
50125;BME280;36023;48.670;6.184;2023-05-29T11:18:44;99115.34;;;23.57;39.98
50125;BME280;36023;48.670;6.184;2023-05-29T11:24:00;99124.13;;;23.57;39.63
50125;BME280;36023;48.670;6.184;2023-05-29T11:26:30;99117.06;;;23.58;39.61
50125;BME280;36023;48.670;6.184;2023-05-29T11:28:59;99110.91;;;23.57;39.52
50125;BME280;36023;48.670;6.184;2023-05-29T11:31:27;99117.91;;;23.58;39.77
50125;BME280;36023;48.670;6.184;2023-05-29T11:33:59;99114.44;;;23.58;39.41
50125;BME280;36023;48.670;6.184;2023-05-29T11:36:26;99115.19;;;23.60;39.66
50125;BME280;36023;48.670;6.184;2023-05-29T11:38:56;99114.31;;;23.59;39.54
50125;BME280;36023;48.670;6.184;2023-05-29T11:41:21;99108.94;;;23.61;39.52
50125;BME280;36023;48.670;6.184;2023-05-29T11:44:00;99107.13;;;23.61;39.40
50125;BME280;36023;48.670;6.184;2023-05-29T11:46:31;99110.50;;;23.63;39.27
50125;BME280;36023;48.670;6.184;2023-05-29T11:49:01;99106.06;;;23.64;39.20
50125;BME280;36023;48.670;6.184;2023-05-29T11:51:27;99101.50;;;23.66;39.33
50125;BME280;36023;48.670;6.184;2023-05-29T11:53:53;99093.59;;;23.66;39.58
50125;BME280;36023;48.670;6.184;2023-05-29T11:56:27;99098.88;;;23.66;39.39
50125;BME280;36023;48.670;6.184;2023-05-29T11:58:53;99090.81;;;23.68;39.40
50125;BME280;36023;48.670;6.184;2023-05-29T12:01:23;99091.53;;;23.70;39.54
50125;BME280;36023;48.670;6.184;2023-05-29T12:03:50;99092.38;;;23.70;39.55
50125;BME280;36023;48.670;6.184;2023-05-29T12:06:30;99102.00;;;23.71;39.43
50125;BME280;36023;48.670;6.184;2023-05-29T12:08:58;99094.78;;;23.73;39.65
50125;BME280;36023;48.670;6.184;2023-05-29T12:11:24;99093.03;;;23.74;39.59
50125;BME280;36023;48.670;6.184;2023-05-29T12:13:56;99092.91;;;23.75;39.74
50125;BME280;36023;48.670;6.184;2023-05-29T12:16:23;99094.59;;;23.76;39.89
50125;BME280;36023;48.670;6.184;2023-05-29T12:18:49;99103.25;;;23.78;39.67
50125;BME280;36023;48.670;6.184;2023-05-29T12:21:14;99115.50;;;23.79;39.98
50125;BME280;36023;48.670;6.184;2023-05-29T12:23:40;99107.56;;;23.79;39.63
50125;BME280;36023;48.670;6.184;2023-05-29T12:26:06;99102.16;;;23.81;39.93
50125;BME280;36023;48.670;6.184;2023-05-29T12:28:32;99084.41;;;23.83;39.80
50125;BME280;36023;48.670;6.184;2023-05-29T12:30:59;99094.97;;;23.83;40.10
50125;BME280;36023;48.670;6.184;2023-05-29T12:33:28;99098.34;;;23.85;40.03
50125;BME280;36023;48.670;6.184;2023-05-29T12:36:07;99097.38;;;23.86;40.24
50125;BME280;36023;48.670;6.184;2023-05-29T12:38:49;99091.97;;;23.87;40.23
50125;BME280;36023;48.670;6.184;2023-05-29T12:43:58;99088.28;;;23.90;40.41
50125;BME280;36023;48.670;6.184;2023-05-29T12:46:25;99082.16;;;23.89;40.28
50125;BME280;36023;48.670;6.184;2023-05-29T12:48:53;99089.97;;;23.91;40.63
50125;BME280;36023;48.670;6.184;2023-05-29T12:51:23;99088.16;;;23.92;40.59
50125;BME280;36023;48.670;6.184;2023-05-29T12:53:49;99087.19;;;23.93;40.38
50125;BME280;36023;48.670;6.184;2023-05-29T12:56:15;99091.53;;;23.94;40.87
50125;BME280;36023;48.670;6.184;2023-05-29T12:58:41;99096.69;;;23.95;40.57
50125;BME280;36023;48.670;6.184;2023-05-29T13:01:12;99106.31;;;23.96;40.73
50125;BME280;36023;48.670;6.184;2023-05-29T13:03:39;99104.50;;;23.97;40.62
50125;BME280;36023;48.670;6.184;2023-05-29T13:06:07;99097.31;;;23.99;41.00
50125;BME280;36023;48.670;6.184;2023-05-29T13:08:34;99106.09;;;23.99;41.23
50125;BME280;36023;48.670;6.184;2023-05-29T13:11:00;99099.84;;;24.00;41.20
50125;BME280;36023;48.670;6.184;2023-05-29T13:13:26;99086.63;;;24.00;41.05
50125;BME280;36023;48.670;6.184;2023-05-29T13:15:52;99083.84;;;24.02;41.03
50125;BME280;36023;48.670;6.184;2023-05-29T13:18:18;99082.16;;;24.01;40.86
50125;BME280;36023;48.670;6.184;2023-05-29T13:20:45;99081.94;;;24.04;41.40
50125;BME280;36023;48.670;6.184;2023-05-29T13:23:11;99099.50;;;24.05;41.08